createdAt,value
2018-10-16T00:00:48.482Z,100291.00
2018-10-16T00:03:17.993Z,100291.00
2018-10-16T00:05:47.415Z,100292.00
2018-10-16T00:08:16.789Z,100286.00
2018-10-16T00:10:47.548Z,100283.00
2018-10-16T00:13:17.003Z,100282.00
2018-10-16T00:15:46.353Z,100283.00
2018-10-16T00:18:15.723Z,100277.00
2018-10-16T00:20:45.256Z,100275.00
2018-10-16T00:23:14.578Z,100274.00
2018-10-16T00:25:43.896Z,100277.00
2018-10-16T00:28:13.223Z,100268.00
2018-10-16T00:30:42.568Z,100265.00
2018-10-16T00:33:11.953Z,100277.00
2018-10-16T00:35:41.831Z,100281.00
2018-10-16T00:38:11.276Z,100287.00
2018-10-16T00:40:41.277Z,100294.00
2018-10-16T00:43:10.641Z,100304.00
2018-10-16T00:45:39.986Z,100308.00
2018-10-16T00:48:09.275Z,100307.00
2018-10-16T00:50:38.615Z,100302.00
2018-10-16T00:53:08.285Z,100300.00
2018-10-16T00:55:37.555Z,100307.00
2018-10-16T00:58:07.563Z,100309.00
2018-10-16T01:00:39.661Z,100302.00
2018-10-16T01:03:09.145Z,100302.00
2018-10-16T01:05:38.515Z,100309.00
2018-10-16T01:08:07.940Z,100310.00
2018-10-16T01:10:37.246Z,100305.00
2018-10-16T01:13:06.560Z,100300.00
2018-10-16T01:15:35.944Z,100300.00
2018-10-16T01:18:05.666Z,100301.00
2018-10-16T01:20:35.035Z,100307.00
2018-10-16T01:23:04.440Z,100307.00
2018-10-16T01:25:34.328Z,100309.00
2018-10-16T01:28:03.700Z,100308.00
2018-10-16T01:30:33.067Z,100304.00
2018-10-16T01:33:03.323Z,100295.00
2018-10-16T01:35:32.607Z,100292.00
2018-10-16T01:38:01.888Z,100290.00
2018-10-16T01:40:31.184Z,100290.00
2018-10-16T01:43:01.079Z,100291.00
2018-10-16T01:45:30.434Z,100286.00
2018-10-16T01:47:59.747Z,100291.00
2018-10-16T01:50:29.293Z,100284.00
2018-10-16T01:52:58.999Z,100284.00
2018-10-16T01:55:30.301Z,100283.00
2018-10-16T01:57:59.659Z,100283.00
2018-10-16T02:00:29.011Z,100286.00
2018-10-16T02:02:58.354Z,100290.00
2018-10-16T02:05:27.721Z,100286.00
2018-10-16T02:07:57.192Z,100288.00
2018-10-16T02:10:36.442Z,100285.00
2018-10-16T02:13:06.183Z,100281.00
2018-10-16T02:15:35.885Z,100284.00
2018-10-16T02:18:05.965Z,100289.00
2018-10-16T02:20:40.335Z,100282.00
2018-10-16T02:23:09.915Z,100288.00
2018-10-16T02:25:39.575Z,100281.00
2018-10-16T02:28:09.213Z,100286.00
2018-10-16T02:30:38.742Z,100284.00
2018-10-16T02:33:08.994Z,100289.00
2018-10-16T02:35:38.566Z,100295.00
2018-10-16T02:38:07.944Z,100297.00
2018-10-16T02:40:37.390Z,100294.00
2018-10-16T02:43:07.920Z,100297.00
2018-10-16T02:45:37.245Z,100301.00
2018-10-16T02:48:06.700Z,100307.00
2018-10-16T02:50:36.117Z,100308.00
2018-10-16T02:53:05.653Z,100303.00
2018-10-16T02:55:35.074Z,100295.00
2018-10-16T02:58:04.515Z,100292.00
2018-10-16T03:00:33.874Z,100292.00
2018-10-16T03:03:05.467Z,100296.00
2018-10-16T03:05:34.744Z,100297.00
2018-10-16T03:08:04.219Z,100303.00
2018-10-16T03:10:33.623Z,100303.00
2018-10-16T03:13:03.037Z,100307.00
2018-10-16T03:15:32.993Z,100314.00
2018-10-16T03:18:02.307Z,100324.00
2018-10-16T03:20:31.804Z,100318.00
2018-10-16T03:23:01.037Z,100323.00
2018-10-16T03:25:30.297Z,100321.00
2018-10-16T03:27:59.647Z,100326.00
2018-10-16T03:30:29.015Z,100322.00
2018-10-16T03:32:59.276Z,100313.00
2018-10-16T03:35:30.244Z,100311.00
2018-10-16T03:37:59.620Z,100308.00
2018-10-16T03:40:29.055Z,100303.00
2018-10-16T03:42:58.391Z,100305.00
2018-10-16T03:45:27.711Z,100305.00
2018-10-16T03:47:57.024Z,100309.00
2018-10-16T03:50:26.300Z,100323.00
2018-10-16T03:52:56.656Z,100323.00
2018-10-16T03:55:26.953Z,100327.00
2018-10-16T03:57:56.444Z,100327.00
2018-10-16T04:00:25.900Z,100328.00
2018-10-16T04:02:55.923Z,100330.00
2018-10-16T04:05:25.469Z,100324.00
2018-10-16T04:07:55.467Z,100323.00
2018-10-16T04:10:24.890Z,100319.00
2018-10-16T04:12:54.216Z,100321.00
2018-10-16T04:15:23.594Z,100317.00
2018-10-16T04:17:53.670Z,100315.00
2018-10-16T04:20:23.196Z,100326.00
2018-10-16T04:22:52.606Z,100335.00
2018-10-16T04:25:22.078Z,100326.00
2018-10-16T04:27:51.420Z,100337.00
2018-10-16T04:30:20.893Z,100344.00
2018-10-16T04:32:52.598Z,100355.00
2018-10-16T04:35:22.290Z,100350.00
2018-10-16T04:37:52.021Z,100349.00
2018-10-16T04:40:22.011Z,100343.00
2018-10-16T04:42:51.481Z,100349.00
2018-10-16T04:45:21.380Z,100349.00
2018-10-16T04:47:51.041Z,100351.00
2018-10-16T04:50:20.532Z,100354.00
2018-10-16T04:52:50.362Z,100354.00
2018-10-16T04:55:19.877Z,100352.00
2018-10-16T04:57:49.182Z,100362.00
2018-10-16T05:00:20.081Z,100359.00
2018-10-16T05:02:49.835Z,100361.00
2018-10-16T05:05:24.432Z,100359.00
2018-10-16T05:07:54.845Z,100366.00
2018-10-16T05:10:24.414Z,100363.00
2018-10-16T05:12:55.311Z,100364.00
2018-10-16T05:15:32.013Z,100368.00
2018-10-16T05:18:01.793Z,100371.00
2018-10-16T05:20:31.343Z,100363.00
2018-10-16T05:23:02.657Z,100363.00
2018-10-16T05:25:32.389Z,100358.00
2018-10-16T05:28:02.036Z,100353.00
2018-10-16T05:30:32.299Z,100360.00
2018-10-16T05:33:04.505Z,100366.00
2018-10-16T05:35:34.332Z,100377.00
2018-10-16T05:38:03.936Z,100385.00
2018-10-16T05:40:33.448Z,100383.00
2018-10-16T05:43:09.326Z,100389.00
2018-10-16T05:45:43.027Z,100389.00
2018-10-16T05:48:12.488Z,100395.00
2018-10-16T05:50:41.922Z,100393.00
2018-10-16T05:53:11.252Z,100385.00
2018-10-16T05:55:40.598Z,100381.00
2018-10-16T05:58:10.183Z,100378.00
2018-10-16T06:00:44.902Z,100378.00
2018-10-16T06:03:14.374Z,100384.00
2018-10-16T06:05:44.019Z,100381.00
2018-10-16T06:08:13.897Z,100385.00
2018-10-16T06:10:43.501Z,100396.00
2018-10-16T06:13:13.227Z,100390.00
2018-10-16T06:15:43.432Z,100392.00
2018-10-16T06:18:12.825Z,100389.00
2018-10-16T06:20:42.443Z,100387.00
2018-10-16T06:23:12.607Z,100390.00
2018-10-16T06:25:42.147Z,100397.00
2018-10-16T06:28:19.834Z,100406.00
2018-10-16T06:30:49.434Z,100413.00
2018-10-16T06:33:22.093Z,100409.00
2018-10-16T06:35:52.405Z,100416.00
2018-10-16T06:38:22.613Z,100414.00
2018-10-16T06:40:55.345Z,100413.00
2018-10-16T06:43:24.635Z,100415.00
2018-10-16T06:45:54.089Z,100417.00
2018-10-16T06:48:23.757Z,100424.00
2018-10-16T06:50:52.994Z,100437.00
2018-10-16T06:53:22.441Z,100435.00
2018-10-16T06:55:51.882Z,100434.00
2018-10-16T06:58:21.359Z,100439.00
2018-10-16T07:00:50.749Z,100442.00
2018-10-16T07:03:20.241Z,100455.00
2018-10-16T07:05:49.698Z,100450.00
2018-10-16T07:08:22.028Z,100449.00
2018-10-16T07:11:00.818Z,100453.00
2018-10-16T07:13:47.780Z,100445.00
2018-10-16T07:16:26.810Z,100455.00
2018-10-16T07:18:57.849Z,100464.00
2018-10-16T07:21:32.597Z,100460.00
2018-10-16T07:24:11.078Z,100459.00
2018-10-16T07:30:02.830Z,100452.00
2018-10-16T07:32:34.803Z,100450.00
2018-10-16T07:35:20.195Z,100449.00
2018-10-16T07:37:57.946Z,100440.00
2018-10-16T07:40:30.833Z,100435.00
2018-10-16T07:43:09.493Z,100428.00
2018-10-16T07:48:22.746Z,100429.00
2018-10-16T07:52:41.246Z,100430.00
2018-10-16T07:55:13.312Z,100431.00
2018-10-16T07:57:42.990Z,100436.00
2018-10-16T08:00:13.133Z,100441.00
2018-10-16T08:02:43.640Z,100440.00
2018-10-16T08:05:13.271Z,100444.00
2018-10-16T08:10:38.105Z,100451.00
2018-10-16T08:13:09.965Z,100459.00
2018-10-16T08:15:49.801Z,100458.00
2018-10-16T08:18:28.357Z,100462.00
2018-10-16T08:20:59.982Z,100460.00
2018-10-16T08:23:29.639Z,100465.00
2018-10-16T08:25:59.183Z,100466.00
2018-10-16T08:28:33.884Z,100461.00
2018-10-16T08:33:52.896Z,100455.00
2018-10-16T08:36:41.884Z,100457.00
2018-10-16T08:39:35.648Z,100458.00
2018-10-16T08:44:25.970Z,100464.00
2018-10-16T08:47:12.301Z,100460.00
2018-10-16T08:49:59.936Z,100461.00
2018-10-16T08:52:33.297Z,100445.00
2018-10-16T08:55:06.189Z,100445.00
2018-10-16T08:59:50.509Z,100441.00
2018-10-16T09:05:18.505Z,100448.00
2018-10-16T09:08:07.278Z,100451.00
2018-10-16T09:10:43.256Z,100458.00
2018-10-16T09:13:24.681Z,100458.00
2018-10-16T09:15:56.471Z,100470.00
2018-10-16T09:18:26.978Z,100475.00
2018-10-16T09:21:02.055Z,100472.00
2018-10-16T09:23:32.313Z,100474.00
2018-10-16T09:26:02.183Z,100474.00
2018-10-16T09:28:31.950Z,100476.00
2018-10-16T09:31:02.500Z,100478.00
2018-10-16T09:33:33.541Z,100480.00
2018-10-16T09:36:03.324Z,100479.00
2018-10-16T09:38:35.571Z,100482.00
2018-10-16T09:41:06.411Z,100484.00
2018-10-16T09:43:40.504Z,100481.00
2018-10-16T09:46:11.824Z,100482.00
2018-10-16T09:48:41.932Z,100477.00
2018-10-16T09:51:22.743Z,100479.00
2018-10-16T09:53:52.498Z,100478.00
2018-10-16T09:56:22.005Z,100473.00
2018-10-16T09:58:51.496Z,100475.00
2018-10-16T10:01:26.154Z,100474.00
2018-10-16T10:03:55.690Z,100478.00
2018-10-16T10:06:25.848Z,100477.00
2018-10-16T10:08:55.262Z,100483.00
2018-10-16T10:11:24.701Z,100480.00
2018-10-16T10:13:54.113Z,100480.00
2018-10-16T10:16:25.029Z,100485.00
2018-10-16T10:18:54.828Z,100487.00
2018-10-16T10:21:24.554Z,100486.00
2018-10-16T10:23:54.168Z,100483.00
2018-10-16T10:26:24.015Z,100490.00
2018-10-16T10:28:53.636Z,100486.00
2018-10-16T10:31:23.135Z,100490.00
2018-10-16T10:33:52.589Z,100489.00
2018-10-16T10:36:22.861Z,100489.00
2018-10-16T10:38:53.636Z,100485.00
2018-10-16T10:41:23.281Z,100477.00
2018-10-16T10:43:52.787Z,100479.00
2018-10-16T10:46:22.362Z,100481.00
2018-10-16T10:48:51.870Z,100474.00
2018-10-16T10:51:21.541Z,100476.00
2018-10-16T10:53:50.833Z,100474.00
2018-10-16T10:56:20.285Z,100477.00
2018-10-16T10:58:49.720Z,100470.00
2018-10-16T11:01:19.182Z,100470.00
2018-10-16T11:03:48.753Z,100473.00
2018-10-16T11:06:18.547Z,100476.00
2018-10-16T11:08:48.021Z,100474.00
2018-10-16T11:11:18.583Z,100476.00
2018-10-16T11:13:48.095Z,100473.00
2018-10-16T11:16:18.570Z,100470.00
2018-10-16T11:18:48.057Z,100474.00
2018-10-16T11:21:18.479Z,100474.00
2018-10-16T11:23:51.033Z,100473.00
2018-10-16T11:26:20.802Z,100473.00
2018-10-16T11:28:50.408Z,100477.00
2018-10-16T11:31:20.199Z,100480.00
2018-10-16T11:33:49.972Z,100477.00
2018-10-16T11:36:19.991Z,100477.00
2018-10-16T11:38:50.623Z,100476.00
2018-10-16T11:41:21.225Z,100477.00
2018-10-16T11:43:50.644Z,100476.00
2018-10-16T11:46:20.245Z,100476.00
2018-10-16T11:48:50.957Z,100480.00
2018-10-16T11:51:33.576Z,100482.00
2018-10-16T11:54:05.921Z,100475.00
2018-10-16T11:56:37.741Z,100471.00
2018-10-16T11:59:13.244Z,100472.00
2018-10-16T12:01:46.497Z,100475.00
2018-10-16T12:04:16.232Z,100476.00
2018-10-16T12:06:45.887Z,100478.00
2018-10-16T12:12:30.703Z,100476.00
2018-10-16T12:15:03.657Z,100475.00
2018-10-16T12:17:40.810Z,100474.00
2018-10-16T12:20:21.323Z,100479.00
2018-10-16T12:25:47.911Z,100491.00
2018-10-16T12:28:38.765Z,100488.00
2018-10-16T12:34:18.836Z,100490.00
2018-10-16T12:36:50.491Z,100491.00
2018-10-16T12:39:20.450Z,100493.00
2018-10-16T12:41:54.524Z,100490.00
2018-10-16T12:44:24.354Z,100489.00
2018-10-16T12:46:53.802Z,100484.00
2018-10-16T12:49:23.048Z,100486.00
2018-10-16T12:51:53.113Z,100486.00
2018-10-16T12:54:23.148Z,100489.00
2018-10-16T12:56:54.011Z,100489.00
2018-10-16T12:59:26.308Z,100495.00
2018-10-16T13:01:58.101Z,100490.00
2018-10-16T13:04:29.405Z,100490.00
2018-10-16T13:07:05.778Z,100490.00
2018-10-16T13:09:44.770Z,100492.00
2018-10-16T13:12:14.791Z,100492.00
2018-10-16T13:14:44.847Z,100498.00
2018-10-16T13:17:21.254Z,100498.00
2018-10-16T13:19:54.053Z,100498.00
2018-10-16T13:22:47.438Z,100501.00
2018-10-16T13:25:36.808Z,100501.00
2018-10-16T13:28:07.517Z,100502.00
2018-10-16T13:30:38.184Z,100493.00
2018-10-16T13:33:10.737Z,100505.00
2018-10-16T13:35:41.305Z,100509.00
2018-10-16T13:38:12.042Z,100510.00
2018-10-16T13:40:41.456Z,100506.00
2018-10-16T13:46:29.799Z,100514.00
2018-10-16T13:48:59.306Z,100506.00
2018-10-16T13:51:29.772Z,100502.00
2018-10-16T13:54:00.270Z,100506.00
2018-10-16T13:56:29.610Z,100508.00
2018-10-16T13:58:59.294Z,100510.00
2018-10-16T14:01:28.927Z,100514.00
2018-10-16T14:04:08.210Z,100522.00
2018-10-16T14:32:09.762Z,100528.00
2018-10-16T14:41:18.868Z,100526.00
2018-10-16T14:43:53.769Z,100528.00
2018-10-16T14:46:25.782Z,100527.00
2018-10-16T14:49:05.472Z,100529.00
2018-10-16T14:51:42.298Z,100525.00
2018-10-16T14:54:25.576Z,100528.00
2018-10-16T14:57:16.424Z,100523.00
2018-10-16T14:59:59.010Z,100529.00
2018-10-16T15:02:47.420Z,100530.00
2018-10-16T15:05:21.027Z,100533.00
2018-10-16T15:07:59.905Z,100533.00
2018-10-16T15:10:52.965Z,100529.00
2018-10-16T15:16:26.883Z,100543.00
2018-10-16T15:28:22.139Z,100539.00
2018-10-16T15:30:59.089Z,100537.00
2018-10-16T15:33:42.974Z,100535.00
2018-10-16T15:36:22.063Z,100534.00
2018-10-16T15:39:09.431Z,100533.00
2018-10-16T15:41:43.548Z,100535.00
2018-10-16T15:44:27.286Z,100539.00
2018-10-16T15:47:00.970Z,100536.00
2018-10-16T15:49:44.836Z,100535.00
2018-10-16T15:52:21.941Z,100534.00
2018-10-16T15:54:56.703Z,100541.00
2018-10-16T15:57:33.183Z,100552.00
2018-10-16T16:00:18.913Z,100553.00
2018-10-16T16:03:12.441Z,100552.00
2018-10-16T16:05:55.989Z,100560.00
2018-10-16T16:08:26.468Z,100564.00
2018-10-16T16:11:07.137Z,100567.00
2018-10-16T16:13:44.901Z,100568.00
2018-10-16T16:16:21.161Z,100574.00
2018-10-16T16:18:59.716Z,100563.00
2018-10-16T16:21:30.939Z,100570.00
2018-10-16T16:24:02.831Z,100574.00
2018-10-16T16:26:41.566Z,100578.00
2018-10-16T16:29:22.826Z,100570.00
2018-10-16T16:31:56.798Z,100577.00
2018-10-16T16:37:07.839Z,100585.00
2018-10-16T16:39:46.508Z,100583.00
2018-10-16T16:42:17.859Z,100586.00
2018-10-16T16:44:52.555Z,100589.00
2018-10-16T16:47:54.670Z,100596.00
2018-10-16T16:50:55.897Z,100593.00
2018-10-16T16:53:47.763Z,100593.00
2018-10-16T16:56:21.271Z,100596.00
2018-10-16T16:59:06.128Z,100594.00
2018-10-16T17:01:38.587Z,100594.00
2018-10-16T17:04:10.756Z,100600.00
2018-10-16T17:06:44.859Z,100600.00
2018-10-16T17:12:36.476Z,100602.00
2018-10-16T17:15:09.843Z,100604.00
2018-10-16T17:21:08.682Z,100603.00
2018-10-16T17:24:11.303Z,100602.00
2018-10-16T17:26:46.160Z,100599.00
2018-10-16T17:29:18.038Z,100599.00
2018-10-16T17:32:04.629Z,100602.00
2018-10-16T17:34:45.290Z,100602.00
2018-10-16T17:37:16.119Z,100601.00
2018-10-16T17:39:46.234Z,100601.00
2018-10-16T17:42:17.076Z,100606.00
2018-10-16T17:44:47.658Z,100609.00
2018-10-16T17:47:17.783Z,100611.00
2018-10-16T17:49:47.935Z,100615.00
2018-10-16T17:52:17.504Z,100615.00
2018-10-16T17:54:48.669Z,100613.00
2018-10-16T17:57:31.303Z,100618.00
2018-10-16T18:00:01.711Z,100626.00
2018-10-16T18:02:36.711Z,100619.00
2018-10-16T18:05:12.524Z,100622.00
2018-10-16T18:07:52.353Z,100622.00
2018-10-16T18:10:24.294Z,100627.00
2018-10-16T18:12:59.428Z,100621.00
2018-10-16T18:15:39.252Z,100624.00
2018-10-16T18:18:10.353Z,100631.00
2018-10-16T18:20:43.079Z,100626.00
2018-10-16T18:23:17.229Z,100626.00
2018-10-16T18:25:48.530Z,100626.00
2018-10-16T18:28:21.180Z,100628.00
2018-10-16T18:30:56.900Z,100628.00
2018-10-16T18:33:28.072Z,100625.00
2018-10-16T18:35:59.723Z,100623.00
2018-10-16T18:38:37.969Z,100632.00
2018-10-16T18:41:13.502Z,100632.00
2018-10-16T18:43:44.207Z,100622.00
2018-10-16T18:46:28.581Z,100623.00
2018-10-16T18:51:59.844Z,100629.00
2018-10-16T18:54:29.741Z,100638.00
2018-10-16T18:57:03.117Z,100632.00
2018-10-16T18:59:34.654Z,100627.00
2018-10-16T19:02:04.456Z,100630.00
2018-10-16T19:04:34.987Z,100635.00
2018-10-16T19:07:05.795Z,100638.00
2018-10-16T19:09:37.026Z,100640.00
2018-10-16T19:12:12.896Z,100643.00
2018-10-16T19:14:45.202Z,100644.00
2018-10-16T19:17:17.790Z,100651.00
2018-10-16T19:19:47.817Z,100644.00
2018-10-16T19:22:25.096Z,100643.00
2018-10-16T19:24:56.616Z,100641.00
2018-10-16T19:27:26.967Z,100643.00
2018-10-16T19:30:16.217Z,100642.00
2018-10-16T19:32:50.851Z,100631.00
2018-10-16T19:35:34.969Z,100633.00
2018-10-16T19:42:02.528Z,100633.00
2018-10-16T19:44:50.687Z,100633.00
2018-10-16T19:47:22.752Z,100631.00
2018-10-16T19:49:55.446Z,100628.00
2018-10-16T19:52:26.015Z,100634.00
2018-10-16T19:54:56.791Z,100629.00
2018-10-16T19:57:27.058Z,100631.00
2018-10-16T19:59:56.721Z,100632.00
2018-10-16T20:02:26.357Z,100631.00
2018-10-16T20:04:55.898Z,100637.00
2018-10-16T20:07:27.645Z,100630.00
2018-10-16T20:09:58.494Z,100638.00
2018-10-16T20:12:30.455Z,100630.00
2018-10-16T20:15:00.483Z,100636.00
2018-10-16T20:17:35.403Z,100640.00
2018-10-16T20:20:05.440Z,100636.00
2018-10-16T20:22:36.358Z,100634.00
2018-10-16T20:25:08.283Z,100633.00
2018-10-16T20:27:39.704Z,100629.00
2018-10-16T20:30:20.111Z,100628.00
2018-10-16T20:32:53.013Z,100627.00
2018-10-16T20:35:22.935Z,100621.00
2018-10-16T20:37:53.771Z,100624.00
2018-10-16T20:40:24.636Z,100624.00
2018-10-16T20:42:54.155Z,100628.00
2018-10-16T20:45:23.699Z,100632.00
2018-10-16T20:47:54.452Z,100631.00
2018-10-16T20:50:23.895Z,100638.00
2018-10-16T20:52:53.256Z,100632.00
2018-10-16T20:55:25.277Z,100636.00
2018-10-16T21:11:40.583Z,100630.00
2018-10-16T21:14:13.398Z,100622.00
2018-10-16T21:16:43.900Z,100629.00
2018-10-16T21:19:16.225Z,100629.00
2018-10-16T21:21:54.911Z,100631.00
2018-10-16T21:24:31.162Z,100629.00
2018-10-16T21:27:09.670Z,100627.00
2018-10-16T21:29:39.403Z,100620.00
2018-10-16T21:32:10.812Z,100625.00
2018-10-16T21:34:40.128Z,100622.00
2018-10-16T21:37:09.715Z,100619.00
2018-10-16T21:39:40.015Z,100624.00
2018-10-16T21:42:09.791Z,100617.00
2018-10-16T21:44:42.028Z,100619.00
2018-10-16T21:47:14.402Z,100621.00
2018-10-16T21:49:45.110Z,100620.00
2018-10-16T21:52:14.880Z,100618.00
2018-10-16T21:54:44.323Z,100626.00
2018-10-16T21:57:13.654Z,100626.00
2018-10-16T21:59:43.063Z,100624.00
2018-10-16T22:02:17.715Z,100629.00
2018-10-16T22:04:47.664Z,100628.00
2018-10-16T22:07:17.146Z,100632.00
2018-10-16T22:09:46.567Z,100626.00
2018-10-16T22:12:16.017Z,100623.00
2018-10-16T22:14:46.488Z,100632.00
2018-10-16T22:17:17.297Z,100626.00
2018-10-16T22:19:47.487Z,100626.00
2018-10-16T22:22:18.239Z,100629.00
2018-10-16T22:24:49.100Z,100631.00
2018-10-16T22:27:18.774Z,100633.00
2018-10-16T22:29:48.310Z,100629.00
2018-10-16T22:32:19.704Z,100634.00
2018-10-16T22:34:56.392Z,100636.00
2018-10-16T22:37:28.567Z,100633.00
2018-10-16T22:40:00.602Z,100632.00
2018-10-16T22:42:32.063Z,100636.00
2018-10-16T22:45:02.304Z,100633.00
2018-10-16T22:47:40.210Z,100628.00
2018-10-16T22:50:14.006Z,100633.00
2018-10-16T22:52:54.215Z,100632.00
2018-10-16T22:55:26.233Z,100633.00
2018-10-16T22:57:59.431Z,100632.00
2018-10-16T23:00:29.061Z,100635.00
2018-10-16T23:02:58.569Z,100629.00
2018-10-16T23:05:28.817Z,100630.00
2018-10-16T23:07:59.140Z,100630.00
2018-10-16T23:10:29.218Z,100632.00
2018-10-16T23:13:04.918Z,100628.00
2018-10-16T23:15:34.283Z,100638.00
2018-10-16T23:18:04.432Z,100633.00
2018-10-16T23:20:34.703Z,100635.00
2018-10-16T23:23:15.652Z,100631.00
2018-10-16T23:25:45.442Z,100642.00
2018-10-16T23:28:15.201Z,100637.00
2018-10-16T23:30:44.533Z,100637.00
2018-10-16T23:33:13.983Z,100639.00
2018-10-16T23:35:43.328Z,100631.00
2018-10-16T23:38:18.957Z,100627.00
2018-10-16T23:40:49.212Z,100628.00
2018-10-16T23:43:18.568Z,100623.00
2018-10-16T23:45:49.786Z,100628.00
2018-10-16T23:48:22.243Z,100621.00
2018-10-16T23:51:04.759Z,100625.00
2018-10-16T23:53:43.845Z,100617.00
2018-10-16T23:56:13.351Z,100628.00
2018-10-16T23:58:45.370Z,100622.00
